.
WxDataArchive / Data Records for 2006-03-06
2006-03-05 March 2006 2006-03-07

Data Records for Monday, 06 March 2006

Time	Temp	Chill	HIndex	Humid	Dewpt	 Wind 	HiWind	WindDir	Rain 	Barom 
-----	----	-----	------	-----	-----	------	------	-------	-----	----- 
00:00	32.5	32.5	32.5	93	30.7	0	1	248	0.00	30.101 
00:05	32.5	32.5	32.5	93	30.7	0	1	248	0.00	30.101 
00:10	32.7	32.7	32.7	93	30.9	0	2	248	0.00	30.101 
00:15	32.7	32.7	32.7	93	30.9	0	1	248	0.00	30.097 
00:20	32.7	32.7	32.7	93	30.9	0	1	248	0.00	30.097 
00:25	32.7	32.7	32.7	93	30.9	0	1	248	0.00	30.097 
00:30	32.7	32.7	32.7	93	30.9	0	1	248	0.00	30.085 
00:35	32.7	32.7	32.7	93	30.9	0	1	248	0.00	30.085 
00:40	32.5	32.5	32.5	93	30.7	0	2	248	0.00	30.085 
00:45	32.5	32.5	32.5	93	30.7	0	1	248	0.00	30.082 
00:50	32.5	32.5	32.5	93	30.7	0	2	248	0.00	30.082 
00:55	32.5	32.5	32.5	93	30.7	0	2	248	0.00	30.082 
01:00	32.5	32.5	32.5	93	30.7	0	1	248	0.00	30.076 
01:05	32.5	32.5	32.5	93	30.7	0	1	248	0.00	30.076 
01:10	32.5	32.5	32.5	93	30.7	0	1	248	0.00	30.076 
01:15	32.5	32.5	32.5	93	30.7	1	2	180	0.00	30.069 
01:20	32.5	32.5	32.5	93	30.7	1	2	135	0.00	30.069 
01:25	32.5	32.5	32.5	93	30.7	1	2	135	0.00	30.069 
01:30	32.4	32.4	32.4	94	30.9	1	3	135	0.00	30.069 
01:35	32.4	32.4	32.4	94	30.9	1	2	135	0.00	30.069 
01:40	32.5	32.5	32.5	94	31.0	1	3	112	0.00	30.069 
01:45	32.4	32.4	32.4	94	30.9	1	2	112	0.00	30.066 
01:50	32.4	32.4	32.4	94	30.9	1	3	68	0.00	30.066 
01:55	32.4	32.4	32.4	94	30.9	0	2	68	0.00	30.066 
02:00	32.4	32.4	32.4	94	30.9	1	2	68	0.00	30.056 
02:05	32.4	32.4	32.4	94	30.9	1	2	90	0.00	30.056 
02:10	32.4	32.4	32.4	94	30.9	1	3	90	0.00	30.056 
02:15	32.4	32.4	32.4	94	30.9	1	3	90	0.00	30.052 
02:20	32.4	32.4	32.4	94	30.9	1	3	90	0.00	30.052 
02:25	32.4	32.4	32.4	94	30.9	0	3	90	0.00	30.052 
02:30	32.4	32.4	32.4	94	30.9	1	2	90	0.00	30.051 
02:35	32.2	32.2	32.2	94	30.7	1	4	68	0.00	30.051 
02:40	32.2	32.2	32.2	94	30.7	2	4	90	0.00	30.051 
02:45	32.2	32.2	32.2	94	30.7	2	4	90	0.00	30.048 
02:50	32.2	32.2	32.2	94	30.7	1	3	90	0.00	30.048 
02:55	32.2	32.2	32.2	94	30.7	1	2	112	0.00	30.048 
03:00	32.2	32.2	32.2	91	29.9	1	3	112	0.00	30.042 
03:05	32.2	32.2	32.2	94	30.7	0	2	112	0.00	30.042 
03:10	32.2	32.2	32.2	94	30.7	1	3	90	0.00	30.042 
03:15	32.2	32.2	32.2	94	30.7	1	2	90	0.00	30.036 
03:20	32.2	32.2	32.2	94	30.7	1	2	90	0.00	30.036 
03:25	32.2	32.2	32.2	94	30.7	0	2	90	0.00	30.036 
03:30	32.2	32.2	32.2	94	30.7	0	1	90	0.00	30.036 
03:35	32.2	32.2	32.2	94	30.7	0	2	90	0.00	30.036 
03:40	32.2	32.2	32.2	94	30.7	0	2	90	0.00	30.036 
03:45	32.2	32.2	32.2	94	30.7	1	3	90	0.00	30.034 
03:50	32.2	32.2	32.2	94	30.7	2	4	90	0.00	30.034 
03:55	32.2	32.2	32.2	94	30.7	1	4	112	0.00	30.034 
04:00	32.2	32.2	32.2	94	30.7	1	3	90	0.00	30.029 
04:05	32.2	32.2	32.2	94	30.7	1	3	90	0.00	30.029 
04:10	32.2	32.2	32.2	94	30.7	1	4	90	0.00	30.029 
04:15	32.2	32.2	32.2	94	30.7	1	3	90	0.00	30.032 
04:20	32.2	32.2	32.2	94	30.7	1	2	90	0.00	30.032 
04:25	32.1	32.1	32.1	94	30.6	2	4	90	0.00	30.032 
04:30	32.1	32.1	32.1	94	30.6	1	2	90	0.00	30.032 
04:35	32.1	32.1	32.1	94	30.6	1	3	90	0.00	30.032 
04:40	32.1	32.1	32.1	94	30.6	1	3	90	0.00	30.032 
04:45	32.1	32.1	32.1	94	30.6	0	1	112	0.00	30.035 
04:50	32.1	32.1	32.1	94	30.6	1	3	90	0.00	30.035 
04:55	32.1	32.1	32.1	94	30.6	0	2	90	0.00	30.035 
05:00	32.1	32.1	32.1	94	30.6	1	3	90	0.00	30.039 
05:05	32.1	32.1	32.1	94	30.6	0	1	90	0.00	30.039 
05:10	32.1	32.1	32.1	94	30.6	1	2	90	0.00	30.039 
05:15	32.1	32.1	32.1	94	30.6	1	3	90	0.00	30.041 
05:20	32.1	32.1	32.1	94	30.6	1	3	90	0.00	30.041 
05:25	32.1	32.1	32.1	94	30.6	2	3	90	0.00	30.041 
05:30	32.1	32.1	32.1	94	30.6	1	3	112	0.00	30.040 
05:35	32.1	32.1	32.1	94	30.6	1	4	90	0.00	30.040 
05:40	32.1	32.1	32.1	94	30.6	2	4	112	0.00	30.040 
05:45	32.1	32.1	32.1	94	30.6	1	4	90	0.00	30.041 
05:50	32.1	32.1	32.1	94	30.6	2	5	90	0.00	30.041 
05:55	32.1	32.1	32.1	94	30.6	2	3	90	0.00	30.041 
06:00	32.1	32.1	32.1	94	30.6	2	4	90	0.00	30.041 
06:05	32.1	32.1	32.1	94	30.6	1	4	90	0.00	30.041 
06:10	32.1	32.1	32.1	94	30.6	2	4	112	0.00	30.041 
06:15	32.1	32.1	32.1	94	30.6	2	4	112	0.00	30.043 
06:20	32.1	32.1	32.1	94	30.6	1	4	112	0.00	30.043 
06:25	32.1	32.1	32.1	94	30.6	1	4	90	0.00	30.043 
06:30	31.9	31.9	31.9	94	30.4	2	4	90	0.00	30.046 
06:35	31.9	31.9	31.9	94	30.4	1	3	112	0.00	30.046 
06:40	32.1	32.1	32.1	94	30.6	1	2	90	0.00	30.046 
06:45	31.9	31.9	31.9	94	30.4	2	4	112	0.00	30.045 
06:50	31.9	31.9	31.9	94	30.4	1	2	90	0.00	30.045 
06:55	31.9	31.9	31.9	94	30.4	1	4	68	0.00	30.045 
07:00	31.9	31.9	31.9	94	30.4	1	3	90	0.00	30.047 
07:05	31.9	31.9	31.9	94	30.4	1	4	112	0.00	30.047 
07:10	31.8	31.8	31.8	94	30.3	2	4	90	0.00	30.047 
07:15	31.8	31.8	31.8	94	30.3	1	4	112	0.00	30.044 
07:20	31.8	31.8	31.8	94	30.3	2	4	90	0.00	30.044 
07:25	31.8	31.8	31.8	94	30.3	2	4	90	0.00	30.044 
07:30	31.8	31.8	31.8	94	30.3	1	3	112	0.00	30.044 
07:35	31.6	31.6	31.6	94	30.1	3	5	112	0.00	30.044 
07:40	31.6	31.6	31.6	94	30.1	2	5	90	0.00	30.044 
07:45	31.8	31.8	31.8	94	30.3	2	5	90	0.00	30.044 
07:50	31.8	31.8	31.8	94	30.3	2	4	90	0.00	30.044 
07:55	31.8	31.8	31.8	94	30.3	3	5	90	0.00	30.044 
08:00	31.8	31.8	31.8	94	30.3	2	3	112	0.00	30.046 
08:05	31.8	31.8	31.8	94	30.3	2	3	112	0.00	30.046 
08:10	31.8	31.8	31.8	94	30.3	2	4	112	0.00	30.046 
08:15	31.8	31.8	31.8	94	30.3	2	3	90	0.00	30.047 
08:20	31.8	31.8	31.8	94	30.3	2	4	90	0.00	30.047 
08:25	31.8	31.8	31.8	94	30.3	2	4	90	0.00	30.047 
08:30	31.8	31.8	31.8	94	30.3	1	3	112	0.00	30.052 
08:35	31.8	31.8	31.8	94	30.3	1	3	112	0.00	30.052 
08:40	31.8	31.8	31.8	94	30.3	2	4	90	0.00	30.052 
08:45	31.8	31.8	31.8	94	30.3	2	5	112	0.00	30.056 
08:50	31.8	31.8	31.8	94	30.3	2	4	90	0.00	30.056 
08:55	31.8	31.8	31.8	94	30.3	2	3	90	0.00	30.056 
09:00	31.8	31.8	31.8	94	30.3	2	5	90	0.00	30.056 
09:05	31.8	31.8	31.8	94	30.3	2	5	90	0.00	30.056 
09:10	31.8	31.8	31.8	94	30.3	2	4	90	0.00	30.056 
09:15	31.8	31.8	31.8	94	30.3	2	4	90	0.00	30.057 
09:20	31.8	31.8	31.8	94	30.3	3	7	112	0.00	30.057 
09:25	31.6	31.6	31.6	94	30.1	2	4	90	0.00	30.057 
09:30	31.8	31.8	31.8	94	30.3	2	3	112	0.00	30.057 
09:35	31.6	31.6	31.6	94	30.1	3	6	90	0.00	30.057 
09:40	31.5	31.5	31.5	94	30.0	3	9	112	0.00	30.057 
09:45	31.5	31.5	31.5	94	30.0	3	7	90	0.00	30.050 
09:50	31.3	27.3	31.3	93	29.5	4	6	90	0.00	30.050 
09:55	31.5	31.5	31.5	93	29.7	2	5	112	0.00	30.050 
10:00	31.3	31.3	31.3	93	29.5	2	5	90	0.00	30.052 
10:05	31.3	31.3	31.3	93	29.5	2	5	90	0.00	30.052 
10:10	31.3	31.3	31.3	93	29.5	2	5	112	0.00	30.052 
10:15	31.3	31.3	31.3	93	29.5	3	6	112	0.00	30.050 
10:20	31.3	31.3	31.3	93	29.5	2	4	90	0.00	30.050 
10:25	31.2	31.2	31.2	93	29.4	2	5	90	0.00	30.050 
10:30	31.2	31.2	31.2	93	29.4	2	5	90	0.00	30.047 
10:35	31.3	31.3	31.3	93	29.5	3	6	90	0.00	30.047 
10:40	31.3	31.3	31.3	93	29.5	2	4	112	0.00	30.047 
10:45	31.5	31.5	31.5	93	29.7	2	4	90	0.00	30.045 
10:50	31.5	31.5	31.5	93	29.7	2	4	112	0.00	30.045 
10:55	31.3	31.3	31.3	93	29.5	3	7	90	0.00	30.045 
11:00	31.5	31.5	31.5	93	29.7	3	5	90	0.00	30.045 
11:05	31.5	31.5	31.5	93	29.7	1	4	90	0.00	30.045 
11:10	31.5	31.5	31.5	93	29.7	2	4	90	0.00	30.045 
11:15	31.5	31.5	31.5	93	29.7	1	2	68	0.00	30.058 
11:20	31.6	31.6	31.6	93	29.8	1	3	68	0.00	30.058 
11:25	31.6	31.6	31.6	93	29.8	2	3	90	0.00	30.058 
11:30	31.6	31.6	31.6	93	29.8	2	4	90	0.00	30.055 
11:35	31.8	31.8	31.8	92	29.7	3	5	90	0.00	30.055 
11:40	31.8	31.8	31.8	92	29.7	2	5	90	0.00	30.055 
11:45	31.9	31.9	31.9	92	29.8	1	4	90	0.00	30.057 
11:50	31.9	31.9	31.9	92	29.8	2	5	112	0.00	30.057 
11:55	32.1	32.1	32.1	92	30.0	1	3	112	0.00	30.057 
12:00	32.1	32.1	32.1	92	30.0	0	1	112	0.01	30.060 
12:05	32.1	32.1	32.1	92	30.0	2	4	90	0.00	30.060 
12:10	32.1	32.1	32.1	92	30.0	2	5	112	0.00	30.060 
12:15	32.1	32.1	32.1	92	30.0	1	5	90	0.00	30.060 
12:20	32.2	32.2	32.2	92	30.1	1	6	90	0.00	30.060 
12:25	32.2	32.2	32.2	92	30.1	2	6	112	0.01	30.060 
12:30	32.2	32.2	32.2	92	30.1	3	7	90	0.00	30.061 
12:35	32.2	32.2	32.2	92	30.1	3	7	112	0.00	30.061 
12:40	32.4	32.4	32.4	92	30.3	1	5	112	0.00	30.061 
12:45	32.5	32.5	32.5	92	30.4	2	5	112	0.01	30.060 
12:50	32.5	32.5	32.5	92	30.4	2	6	90	0.00	30.060 
12:55	32.5	32.5	32.5	92	30.4	2	7	90	0.00	30.060 
13:00	32.7	32.7	32.7	92	30.6	2	5	90	0.00	30.061 
13:05	32.5	32.5	32.5	92	30.4	2	9	112	0.01	30.061 
13:10	32.7	32.7	32.7	92	30.6	2	4	112	0.00	30.061 
13:15	32.5	32.5	32.5	92	30.4	3	5	90	0.00	30.063 
13:20	32.5	32.5	32.5	91	30.2	2	5	22	0.00	30.063 
13:25	32.5	32.5	32.5	91	30.2	2	6	22	0.00	30.063 
13:30	32.7	32.7	32.7	91	30.4	2	4	45	0.01	30.064 
13:35	32.7	32.7	32.7	91	30.4	2	6	90	0.00	30.064 
13:40	32.8	32.8	32.8	91	30.5	2	7	112	0.00	30.064 
13:45	32.7	32.7	32.7	90	30.1	2	7	90	0.00	30.071 
13:50	32.5	32.5	32.5	90	29.9	3	7	112	0.00	30.071 
13:55	32.4	32.4	32.4	89	29.5	2	6	22	0.00	30.071 
14:00	32.4	32.4	32.4	89	29.5	3	10	112	0.00	30.075 
14:05	32.5	32.5	32.5	89	29.6	3	6	90	0.01	30.075 
14:10	32.5	32.5	32.5	89	29.6	3	10	112	0.00	30.075 
14:15	32.4	32.4	32.4	89	29.5	2	7	45	0.00	30.076 
14:20	32.4	32.4	32.4	89	29.5	3	6	112	0.00	30.076 
14:25	32.4	32.4	32.4	90	29.8	3	8	112	0.00	30.076 
14:30	32.4	32.4	32.4	89	29.5	3	10	68	0.00	30.080 
14:35	32.5	32.5	32.5	90	29.9	2	10	112	0.01	30.080 
14:40	32.7	32.7	32.7	90	30.1	3	10	45	0.00	30.080 
14:45	32.5	32.5	32.5	89	29.6	3	7	112	0.00	30.086 
14:50	32.5	32.5	32.5	89	29.6	2	5	90	0.00	30.086 
14:55	32.7	32.7	32.7	90	30.1	2	5	90	0.00	30.086 
15:00	32.5	32.5	32.5	89	29.6	3	10	68	0.00	30.092 
15:05	32.5	32.5	32.5	89	29.6	3	10	45	0.01	30.092 
15:10	32.7	32.7	32.7	90	30.1	3	9	112	0.00	30.092 
15:15	32.9	32.9	32.9	90	30.3	1	3	45	0.00	30.095 
15:20	33.1	33.1	33.1	90	30.5	1	4	90	0.00	30.095 
15:25	33.2	33.2	33.2	90	30.6	1	4	0	0.00	30.095 
15:30	33.4	33.4	33.4	91	31.1	1	5	68	0.00	30.102 
15:35	33.2	33.2	33.2	90	30.6	3	6	90	0.00	30.102 
15:40	33.4	33.4	33.4	90	30.8	1	4	90	0.00	30.102 
15:45	33.5	33.5	33.5	90	30.9	2	4	68	0.01	30.105 
15:50	33.7	33.7	33.7	91	31.4	1	2	45	0.00	30.105 
15:55	33.8	33.8	33.8	91	31.5	1	4	68	0.00	30.105 
16:00	33.7	33.7	33.7	89	30.8	2	5	90	0.00	30.106 
16:05	33.7	33.7	33.7	90	31.1	2	5	45	0.00	30.106 
16:10	33.8	33.8	33.8	90	31.2	1	3	45	0.00	30.106 
16:15	33.8	33.8	33.8	89	30.9	2	4	45	0.00	30.115 
16:20	34.0	34.0	34.0	88	30.8	2	5	45	0.00	30.115 
16:25	34.1	34.1	34.1	88	30.9	1	3	90	0.00	30.115 
16:30	34.1	34.1	34.1	88	30.9	2	6	45	0.00	30.119 
16:35	34.0	34.0	34.0	88	30.8	2	4	112	0.00	30.119 
16:40	33.8	33.8	33.8	87	30.3	2	9	45	0.00	30.119 
16:45	33.7	33.7	33.7	87	30.3	2	10	45	0.00	30.125 
16:50	33.8	33.8	33.8	86	30.1	2	5	112	0.00	30.125 
16:55	34.0	34.0	34.0	87	30.5	1	3	90	0.00	30.125 
17:00	33.8	33.8	33.8	86	30.1	2	5	112	0.00	30.131 
17:05	33.7	33.7	33.7	86	30.0	1	4	90	0.00	30.131 
17:10	33.7	33.7	33.7	86	30.0	1	4	68	0.00	30.131 
17:15	33.7	33.7	33.7	86	30.0	1	3	112	0.01	30.137 
17:20	33.7	33.7	33.7	86	30.0	2	4	45	0.00	30.137 
17:25	33.7	33.7	33.7	85	29.7	2	5	112	0.00	30.137 
17:30	33.8	33.8	33.8	84	29.5	1	3	68	0.00	30.140 
17:35	33.8	33.8	33.8	84	29.5	2	4	45	0.00	30.140 
17:40	33.8	33.8	33.8	83	29.2	2	5	112	0.00	30.140 
17:45	33.8	33.8	33.8	81	28.6	2	7	68	0.00	30.149 
17:50	33.8	33.8	33.8	82	28.9	2	4	90	0.00	30.149 
17:55	33.7	33.7	33.7	81	28.5	3	10	45	0.00	30.149 
18:00	33.7	33.7	33.7	82	28.8	2	5	22	0.00	30.156 
18:05	33.7	33.7	33.7	82	28.8	2	6	90	0.00	30.156 
18:10	33.5	33.5	33.5	79	27.7	2	6	45	0.00	30.156 
18:15	33.5	33.5	33.5	80	28.0	2	6	90	0.00	30.168 
18:20	33.4	33.4	33.4	81	28.2	2	5	68	0.00	30.168 
18:25	33.4	33.4	33.4	81	28.2	2	6	22	0.00	30.168 
18:30	33.2	33.2	33.2	81	28.0	2	4	135	0.00	30.177 
18:35	33.2	33.2	33.2	81	28.0	1	3	112	0.00	30.177 
18:40	33.1	33.1	33.1	81	27.9	0	2	45	0.00	30.177 
18:45	32.9	32.9	32.9	81	27.7	1	3	45	0.00	30.185 
18:50	32.7	32.7	32.7	80	27.2	1	3	22	0.00	30.185 
18:55	32.5	32.5	32.5	81	27.3	0	2	112	0.00	30.185 
19:00	32.4	32.4	32.4	81	27.2	0	1	112	0.00	30.188 
19:05	32.1	32.1	32.1	81	26.9	0	0	---	0.00	30.188 
19:10	31.9	31.9	31.9	81	26.7	0	0	---	0.00	30.188 
19:15	31.6	31.6	31.6	82	26.7	0	0	---	0.00	30.199 
19:20	31.3	31.3	31.3	82	26.5	0	0	---	0.00	30.199 
19:25	31.2	31.2	31.2	83	26.6	0	0	---	0.00	30.199 
19:30	30.9	30.9	30.9	83	26.4	0	0	---	0.00	30.206 
19:35	30.6	30.6	30.6	84	26.4	0	0	---	0.00	30.206 
19:40	30.3	30.3	30.3	84	26.1	0	0	---	0.00	30.206 
19:45	30.1	30.1	30.1	84	25.9	0	0	---	0.00	30.214 
19:50	30.0	30.0	30.0	85	26.0	0	0	---	0.00	30.214 
19:55	29.8	29.8	29.8	85	25.9	0	0	---	0.00	30.214 
20:00	29.8	29.8	29.8	86	26.1	0	0	---	0.00	30.222 
20:05	29.7	29.7	29.7	86	26.0	0	0	---	0.00	30.222 
20:10	29.5	29.5	29.5	87	26.1	0	0	---	0.00	30.222 
20:15	29.4	29.4	29.4	87	26.0	0	0	---	0.00	30.231 
20:20	29.3	29.3	29.3	87	25.9	0	0	---	0.00	30.231 
20:25	29.3	29.3	29.3	87	25.9	0	0	---	0.00	30.231 
20:30	29.1	29.1	29.1	87	25.7	0	0	---	0.00	30.236 
20:35	29.0	29.0	29.0	88	25.9	0	0	---	0.00	30.236 
20:40	29.0	29.0	29.0	88	25.9	0	0	---	0.00	30.236 
20:45	29.0	29.0	29.0	88	25.9	0	0	---	0.00	30.239 
20:50	28.8	28.8	28.8	88	25.7	0	0	---	0.00	30.239 
20:55	28.7	28.7	28.7	88	25.6	0	0	---	0.00	30.239 
21:00	28.5	28.5	28.5	88	25.4	0	0	---	0.00	30.242 
21:05	28.5	28.5	28.5	88	25.4	0	0	---	0.00	30.242 
21:10	28.7	28.7	28.7	88	25.6	0	1	112	0.00	30.242 
21:15	28.8	28.8	28.8	88	25.7	0	1	112	0.00	30.252 
21:20	28.8	28.8	28.8	88	25.7	0	1	112	0.00	30.252 
21:25	29.0	29.0	29.0	88	25.9	0	2	112	0.00	30.252 
21:30	29.0	29.0	29.0	88	25.9	0	1	112	0.00	30.254 
21:35	29.0	29.0	29.0	88	25.9	0	1	112	0.00	30.254 
21:40	28.8	28.8	28.8	88	25.7	0	0	---	0.00	30.254 
21:45	28.8	28.8	28.8	88	25.7	0	0	---	0.00	30.259 
21:50	28.7	28.7	28.7	88	25.6	0	0	---	0.00	30.259 
21:55	28.5	28.5	28.5	88	25.4	0	1	112	0.00	30.259 
22:00	28.5	28.5	28.5	88	25.4	0	0	---	0.00	30.260 
22:05	28.4	28.4	28.4	88	25.3	0	0	---	0.00	30.260 
22:10	28.2	28.2	28.2	88	25.1	0	0	---	0.00	30.260 
22:15	28.2	28.2	28.2	88	25.1	0	1	112	0.00	30.264 
22:20	28.1	28.1	28.1	88	25.0	0	1	112	0.00	30.264 
22:25	28.1	28.1	28.1	88	25.0	0	1	112	0.00	30.264 
22:30	28.1	28.1	28.1	88	25.0	0	1	112	0.00	30.270 
22:35	28.1	28.1	28.1	88	25.0	0	1	112	0.00	30.270 
22:40	28.1	28.1	28.1	88	25.0	0	1	112	0.00	30.270 
22:45	28.1	28.1	28.1	88	25.0	0	2	112	0.00	30.272 
22:50	28.2	28.2	28.2	88	25.1	0	2	22	0.00	30.272 
22:55	28.4	28.4	28.4	88	25.3	0	1	338	0.00	30.272 
23:00	28.4	28.4	28.4	87	25.0	0	1	338	0.00	30.280 
23:05	28.4	28.4	28.4	87	25.0	0	3	338	0.00	30.280 
23:10	28.4	28.4	28.4	87	25.0	0	1	338	0.00	30.280 
23:15	28.4	28.4	28.4	87	25.0	0	1	338	0.00	30.281 
23:20	28.4	28.4	28.4	86	24.8	0	1	338	0.00	30.281 
23:25	28.4	28.4	28.4	86	24.8	0	1	338	0.00	30.281 
23:30	28.4	28.4	28.4	86	24.8	0	1	338	0.00	30.285 
23:35	28.4	28.4	28.4	86	24.8	0	1	338	0.00	30.285 
23:40	28.4	28.4	28.4	86	24.8	0	1	338	0.00	30.285 
23:45	28.2	28.2	28.2	85	24.3	0	1	338	0.00	30.288 
23:50	28.1	28.1	28.1	85	24.2	0	2	338	0.00	30.288 
23:55	28.1	28.1	28.1	85	24.2	0	2	338	0.00	30.288 

CoCoRaHS
IN-AL-39
A2 Web Hosting
Creative Commons License
GoDaddy
Look for:

loaded 2017-12-12 01:36:42 • last modified 2010-11-18 10:43:29
Privacy PolicyDisclaimer
• wx.awcolley.com is powered by PmWiki v.2002016 •
• all content (unless otherwise noted) © 2017 A W Colley